sensor_id;sensor_type;location;lat;lon;timestamp;P1;durP1;ratioP1;P2;durP2;ratioP2
14139;SDS011;7150;53.514;9.988;2023-01-20T00:00:22;8.13;;;2.40;;
14139;SDS011;7150;53.514;9.988;2023-01-20T00:02:47;5.47;;;1.87;;
14139;SDS011;7150;53.514;9.988;2023-01-20T00:05:13;8.60;;;2.33;;
14139;SDS011;7150;53.514;9.988;2023-01-20T00:07:39;5.77;;;2.47;;
14139;SDS011;7150;53.514;9.988;2023-01-20T00:10:04;4.60;;;2.23;;
14139;SDS011;7150;53.514;9.988;2023-01-20T00:12:31;6.10;;;2.33;;
14139;SDS011;7150;53.514;9.988;2023-01-20T00:14:56;6.10;;;2.43;;
14139;SDS011;7150;53.514;9.988;2023-01-20T00:17:22;4.63;;;2.17;;
14139;SDS011;7150;53.514;9.988;2023-01-20T00:19:47;6.63;;;3.10;;
14139;SDS011;7150;53.514;9.988;2023-01-20T00:22:13;6.07;;;2.87;;
14139;SDS011;7150;53.514;9.988;2023-01-20T00:24:38;7.67;;;3.10;;
14139;SDS011;7150;53.514;9.988;2023-01-20T00:27:04;7.10;;;3.03;;
14139;SDS011;7150;53.514;9.988;2023-01-20T00:29:30;8.73;;;2.93;;
14139;SDS011;7150;53.514;9.988;2023-01-20T00:31:55;6.80;;;3.20;;
14139;SDS011;7150;53.514;9.988;2023-01-20T00:34:20;7.00;;;3.60;;
14139;SDS011;7150;53.514;9.988;2023-01-20T00:36:46;10.37;;;4.13;;
14139;SDS011;7150;53.514;9.988;2023-01-20T00:39:11;9.70;;;3.53;;
14139;SDS011;7150;53.514;9.988;2023-01-20T00:41:37;10.97;;;4.13;;
14139;SDS011;7150;53.514;9.988;2023-01-20T00:44:02;9.20;;;4.43;;
14139;SDS011;7150;53.514;9.988;2023-01-20T00:46:28;6.33;;;4.00;;
14139;SDS011;7150;53.514;9.988;2023-01-20T00:48:53;11.93;;;5.07;;
14139;SDS011;7150;53.514;9.988;2023-01-20T00:51:19;9.80;;;4.27;;
14139;SDS011;7150;53.514;9.988;2023-01-20T00:53:44;10.27;;;4.70;;
14139;SDS011;7150;53.514;9.988;2023-01-20T00:56:10;9.57;;;4.97;;
14139;SDS011;7150;53.514;9.988;2023-01-20T00:58:35;12.87;;;5.80;;
14139;SDS011;7150;53.514;9.988;2023-01-20T01:01:01;13.07;;;6.50;;
14139;SDS011;7150;53.514;9.988;2023-01-20T01:03:27;8.93;;;5.30;;
14139;SDS011;7150;53.514;9.988;2023-01-20T01:05:53;10.13;;;5.77;;
14139;SDS011;7150;53.514;9.988;2023-01-20T01:08:18;10.77;;;5.23;;
14139;SDS011;7150;53.514;9.988;2023-01-20T01:10:44;10.07;;;5.57;;
14139;SDS011;7150;53.514;9.988;2023-01-20T01:13:09;12.73;;;5.73;;
14139;SDS011;7150;53.514;9.988;2023-01-20T01:15:35;14.17;;;6.23;;
14139;SDS011;7150;53.514;9.988;2023-01-20T01:18:01;13.63;;;5.77;;
14139;SDS011;7150;53.514;9.988;2023-01-20T01:20:27;15.10;;;6.63;;
14139;SDS011;7150;53.514;9.988;2023-01-20T01:22:53;14.77;;;8.80;;
14139;SDS011;7150;53.514;9.988;2023-01-20T01:25:18;16.37;;;7.73;;
14139;SDS011;7150;53.514;9.988;2023-01-20T01:27:44;12.20;;;6.87;;
14139;SDS011;7150;53.514;9.988;2023-01-20T01:30:10;14.27;;;7.40;;
14139;SDS011;7150;53.514;9.988;2023-01-20T01:32:36;13.47;;;6.67;;
14139;SDS011;7150;53.514;9.988;2023-01-20T01:35:01;16.00;;;7.33;;
14139;SDS011;7150;53.514;9.988;2023-01-20T01:37:27;13.50;;;6.43;;
14139;SDS011;7150;53.514;9.988;2023-01-20T01:39:53;14.60;;;7.83;;
14139;SDS011;7150;53.514;9.988;2023-01-20T01:42:19;11.57;;;6.37;;
14139;SDS011;7150;53.514;9.988;2023-01-20T01:47:34;11.00;;;6.47;;
14139;SDS011;7150;53.514;9.988;2023-01-20T01:50:00;12.97;;;6.90;;
14139;SDS011;7150;53.514;9.988;2023-01-20T01:52:27;15.03;;;7.87;;
14139;SDS011;7150;53.514;9.988;2023-01-20T01:54:53;15.90;;;8.03;;
14139;SDS011;7150;53.514;9.988;2023-01-20T01:57:19;19.33;;;7.13;;
14139;SDS011;7150;53.514;9.988;2023-01-20T01:59:46;15.73;;;7.17;;
14139;SDS011;7150;53.514;9.988;2023-01-20T02:02:11;14.17;;;7.57;;
14139;SDS011;7150;53.514;9.988;2023-01-20T02:04:37;14.07;;;7.77;;
14139;SDS011;7150;53.514;9.988;2023-01-20T02:07:12;14.13;;;7.53;;
14139;SDS011;7150;53.514;9.988;2023-01-20T02:09:40;15.17;;;7.43;;
14139;SDS011;7150;53.514;9.988;2023-01-20T02:12:07;15.83;;;8.67;;
14139;SDS011;7150;53.514;9.988;2023-01-20T02:14:40;15.80;;;8.20;;
14139;SDS011;7150;53.514;9.988;2023-01-20T02:22:55;15.40;;;8.13;;
14139;SDS011;7150;53.514;9.988;2023-01-20T02:25:43;15.90;;;7.83;;
14139;SDS011;7150;53.514;9.988;2023-01-20T02:28:36;16.70;;;9.37;;
14139;SDS011;7150;53.514;9.988;2023-01-20T02:34:14;17.07;;;9.37;;
14139;SDS011;7150;53.514;9.988;2023-01-20T02:36:46;14.00;;;8.97;;
14139;SDS011;7150;53.514;9.988;2023-01-20T02:39:20;17.03;;;9.73;;
14139;SDS011;7150;53.514;9.988;2023-01-20T02:41:55;20.17;;;11.87;;
14139;SDS011;7150;53.514;9.988;2023-01-20T02:44:27;18.43;;;9.90;;
14139;SDS011;7150;53.514;9.988;2023-01-20T02:50:20;23.60;;;11.83;;
14139;SDS011;7150;53.514;9.988;2023-01-20T02:52:50;28.30;;;12.53;;
14139;SDS011;7150;53.514;9.988;2023-01-20T02:55:30;22.07;;;12.93;;
14139;SDS011;7150;53.514;9.988;2023-01-20T02:58:06;27.60;;;14.10;;
14139;SDS011;7150;53.514;9.988;2023-01-20T03:00:38;21.07;;;12.03;;
14139;SDS011;7150;53.514;9.988;2023-01-20T03:03:09;22.93;;;13.10;;
14139;SDS011;7150;53.514;9.988;2023-01-20T03:05:40;28.70;;;14.33;;
14139;SDS011;7150;53.514;9.988;2023-01-20T03:08:13;26.47;;;13.57;;
14139;SDS011;7150;53.514;9.988;2023-01-20T03:10:40;26.23;;;14.50;;
14139;SDS011;7150;53.514;9.988;2023-01-20T03:15:51;27.93;;;14.30;;
14139;SDS011;7150;53.514;9.988;2023-01-20T03:18:20;24.70;;;12.63;;
14139;SDS011;7150;53.514;9.988;2023-01-20T03:20:46;23.20;;;12.30;;
14139;SDS011;7150;53.514;9.988;2023-01-20T03:23:12;25.07;;;13.97;;
14139;SDS011;7150;53.514;9.988;2023-01-20T03:25:37;29.00;;;15.40;;
14139;SDS011;7150;53.514;9.988;2023-01-20T03:28:04;27.27;;;14.87;;
14139;SDS011;7150;53.514;9.988;2023-01-20T03:30:29;30.83;;;15.23;;
14139;SDS011;7150;53.514;9.988;2023-01-20T03:32:55;27.23;;;15.27;;
14139;SDS011;7150;53.514;9.988;2023-01-20T03:35:20;28.77;;;13.20;;
14139;SDS011;7150;53.514;9.988;2023-01-20T03:37:46;31.03;;;15.00;;
14139;SDS011;7150;53.514;9.988;2023-01-20T03:40:12;27.73;;;13.47;;
14139;SDS011;7150;53.514;9.988;2023-01-20T03:42:52;30.67;;;13.70;;
14139;SDS011;7150;53.514;9.988;2023-01-20T03:55:53;27.77;;;14.73;;
14139;SDS011;7150;53.514;9.988;2023-01-20T03:58:31;27.73;;;14.30;;
14139;SDS011;7150;53.514;9.988;2023-01-20T04:01:00;31.13;;;14.67;;
14139;SDS011;7150;53.514;9.988;2023-01-20T04:03:31;31.20;;;15.70;;
14139;SDS011;7150;53.514;9.988;2023-01-20T04:06:01;25.33;;;13.83;;
14139;SDS011;7150;53.514;9.988;2023-01-20T04:08:30;28.60;;;14.23;;
14139;SDS011;7150;53.514;9.988;2023-01-20T04:10:59;28.17;;;13.97;;
14139;SDS011;7150;53.514;9.988;2023-01-20T04:13:28;24.97;;;13.27;;
14139;SDS011;7150;53.514;9.988;2023-01-20T04:15:53;31.13;;;13.97;;
14139;SDS011;7150;53.514;9.988;2023-01-20T04:18:22;28.07;;;14.97;;
14139;SDS011;7150;53.514;9.988;2023-01-20T04:20:49;27.33;;;13.83;;
14139;SDS011;7150;53.514;9.988;2023-01-20T04:23:20;26.63;;;13.53;;
14139;SDS011;7150;53.514;9.988;2023-01-20T04:25:52;25.97;;;13.13;;
14139;SDS011;7150;53.514;9.988;2023-01-20T04:28:17;29.53;;;13.17;;
14139;SDS011;7150;53.514;9.988;2023-01-20T04:30:43;28.23;;;14.23;;
14139;SDS011;7150;53.514;9.988;2023-01-20T04:33:08;25.97;;;13.47;;
14139;SDS011;7150;53.514;9.988;2023-01-20T04:35:33;26.77;;;13.53;;
14139;SDS011;7150;53.514;9.988;2023-01-20T04:37:59;33.40;;;14.40;;
14139;SDS011;7150;53.514;9.988;2023-01-20T04:40:25;29.60;;;13.90;;
14139;SDS011;7150;53.514;9.988;2023-01-20T04:42:51;22.93;;;12.47;;
14139;SDS011;7150;53.514;9.988;2023-01-20T04:45:16;29.43;;;13.53;;
14139;SDS011;7150;53.514;9.988;2023-01-20T04:47:42;24.57;;;12.07;;
14139;SDS011;7150;53.514;9.988;2023-01-20T04:50:08;25.23;;;13.07;;
14139;SDS011;7150;53.514;9.988;2023-01-20T04:52:35;23.53;;;11.97;;
14139;SDS011;7150;53.514;9.988;2023-01-20T04:55:01;25.50;;;12.57;;
14139;SDS011;7150;53.514;9.988;2023-01-20T04:57:27;29.33;;;12.57;;
14139;SDS011;7150;53.514;9.988;2023-01-20T04:59:53;21.73;;;11.60;;
14139;SDS011;7150;53.514;9.988;2023-01-20T05:02:18;25.80;;;12.57;;
14139;SDS011;7150;53.514;9.988;2023-01-20T05:04:44;27.47;;;12.83;;
14139;SDS011;7150;53.514;9.988;2023-01-20T05:07:09;29.63;;;13.77;;
14139;SDS011;7150;53.514;9.988;2023-01-20T05:09:35;29.53;;;13.00;;
14139;SDS011;7150;53.514;9.988;2023-01-20T05:12:01;27.17;;;12.27;;
14139;SDS011;7150;53.514;9.988;2023-01-20T05:14:26;28.03;;;14.07;;
14139;SDS011;7150;53.514;9.988;2023-01-20T05:16:52;33.17;;;12.53;;
14139;SDS011;7150;53.514;9.988;2023-01-20T05:19:17;28.93;;;12.63;;
14139;SDS011;7150;53.514;9.988;2023-01-20T05:21:43;25.27;;;12.13;;
14139;SDS011;7150;53.514;9.988;2023-01-20T05:24:08;26.70;;;13.00;;
14139;SDS011;7150;53.514;9.988;2023-01-20T05:26:34;21.53;;;10.70;;
14139;SDS011;7150;53.514;9.988;2023-01-20T05:28:59;25.00;;;11.47;;
14139;SDS011;7150;53.514;9.988;2023-01-20T05:31:26;25.53;;;12.37;;
14139;SDS011;7150;53.514;9.988;2023-01-20T05:33:52;25.13;;;12.17;;
14139;SDS011;7150;53.514;9.988;2023-01-20T05:36:17;26.13;;;12.47;;
14139;SDS011;7150;53.514;9.988;2023-01-20T05:38:43;23.83;;;12.37;;
14139;SDS011;7150;53.514;9.988;2023-01-20T05:41:08;28.87;;;11.33;;
14139;SDS011;7150;53.514;9.988;2023-01-20T05:43:34;27.30;;;11.83;;
14139;SDS011;7150;53.514;9.988;2023-01-20T05:46:00;27.40;;;12.73;;
14139;SDS011;7150;53.514;9.988;2023-01-20T05:48:26;28.60;;;12.83;;
14139;SDS011;7150;53.514;9.988;2023-01-20T05:50:52;23.23;;;12.17;;
14139;SDS011;7150;53.514;9.988;2023-01-20T05:53:17;24.63;;;11.90;;
14139;SDS011;7150;53.514;9.988;2023-01-20T05:55:43;22.30;;;10.77;;
14139;SDS011;7150;53.514;9.988;2023-01-20T05:58:09;24.70;;;11.20;;
14139;SDS011;7150;53.514;9.988;2023-01-20T06:00:35;23.90;;;12.10;;
14139;SDS011;7150;53.514;9.988;2023-01-20T06:03:01;23.23;;;11.03;;
14139;SDS011;7150;53.514;9.988;2023-01-20T06:05:26;23.20;;;10.80;;
14139;SDS011;7150;53.514;9.988;2023-01-20T06:07:55;25.07;;;12.00;;
14139;SDS011;7150;53.514;9.988;2023-01-20T06:10:21;22.00;;;10.60;;
14139;SDS011;7150;53.514;9.988;2023-01-20T06:12:52;25.10;;;11.60;;
14139;SDS011;7150;53.514;9.988;2023-01-20T06:15:18;22.33;;;11.27;;
14139;SDS011;7150;53.514;9.988;2023-01-20T06:17:44;26.20;;;10.80;;
14139;SDS011;7150;53.514;9.988;2023-01-20T06:20:09;28.77;;;11.50;;
14139;SDS011;7150;53.514;9.988;2023-01-20T06:22:35;26.97;;;11.30;;
14139;SDS011;7150;53.514;9.988;2023-01-20T06:25:01;23.53;;;10.30;;
14139;SDS011;7150;53.514;9.988;2023-01-20T06:27:27;20.30;;;10.10;;
14139;SDS011;7150;53.514;9.988;2023-01-20T06:29:52;21.97;;;10.63;;
14139;SDS011;7150;53.514;9.988;2023-01-20T06:32:18;26.07;;;11.90;;
14139;SDS011;7150;53.514;9.988;2023-01-20T06:34:43;22.00;;;11.73;;
14139;SDS011;7150;53.514;9.988;2023-01-20T06:37:09;28.20;;;12.23;;
14139;SDS011;7150;53.514;9.988;2023-01-20T06:39:35;24.50;;;11.37;;
14139;SDS011;7150;53.514;9.988;2023-01-20T06:42:01;23.10;;;11.13;;
14139;SDS011;7150;53.514;9.988;2023-01-20T06:44:27;26.23;;;11.67;;
14139;SDS011;7150;53.514;9.988;2023-01-20T06:46:52;22.90;;;10.73;;
14139;SDS011;7150;53.514;9.988;2023-01-20T06:49:18;22.83;;;11.43;;
14139;SDS011;7150;53.514;9.988;2023-01-20T06:51:43;26.83;;;10.97;;
14139;SDS011;7150;53.514;9.988;2023-01-20T06:54:09;23.27;;;11.07;;
14139;SDS011;7150;53.514;9.988;2023-01-20T06:56:34;27.73;;;13.13;;
14139;SDS011;7150;53.514;9.988;2023-01-20T06:59:00;24.80;;;12.07;;
14139;SDS011;7150;53.514;9.988;2023-01-20T07:01:29;24.03;;;11.07;;
14139;SDS011;7150;53.514;9.988;2023-01-20T07:03:55;28.90;;;13.10;;
14139;SDS011;7150;53.514;9.988;2023-01-20T07:06:28;28.53;;;12.27;;
14139;SDS011;7150;53.514;9.988;2023-01-20T07:08:56;22.30;;;10.90;;
14139;SDS011;7150;53.514;9.988;2023-01-20T07:11:23;24.10;;;11.73;;
14139;SDS011;7150;53.514;9.988;2023-01-20T07:13:48;28.80;;;12.63;;
14139;SDS011;7150;53.514;9.988;2023-01-20T07:16:14;29.30;;;13.87;;
14139;SDS011;7150;53.514;9.988;2023-01-20T07:18:39;26.03;;;12.03;;
14139;SDS011;7150;53.514;9.988;2023-01-20T07:21:05;26.83;;;12.13;;
14139;SDS011;7150;53.514;9.988;2023-01-20T07:23:31;27.80;;;11.73;;
14139;SDS011;7150;53.514;9.988;2023-01-20T07:26:01;25.57;;;12.03;;
14139;SDS011;7150;53.514;9.988;2023-01-20T07:28:31;24.43;;;11.60;;
14139;SDS011;7150;53.514;9.988;2023-01-20T07:31:10;23.00;;;10.53;;
14139;SDS011;7150;53.514;9.988;2023-01-20T07:33:38;23.37;;;12.07;;
14139;SDS011;7150;53.514;9.988;2023-01-20T07:36:04;27.03;;;11.67;;
14139;SDS011;7150;53.514;9.988;2023-01-20T07:38:31;19.33;;;9.63;;
14139;SDS011;7150;53.514;9.988;2023-01-20T07:40:59;21.57;;;9.97;;
14139;SDS011;7150;53.514;9.988;2023-01-20T07:43:26;25.50;;;11.83;;
14139;SDS011;7150;53.514;9.988;2023-01-20T07:45:56;22.60;;;11.03;;
14139;SDS011;7150;53.514;9.988;2023-01-20T07:48:22;26.83;;;12.03;;
14139;SDS011;7150;53.514;9.988;2023-01-20T07:50:53;23.23;;;10.47;;
14139;SDS011;7150;53.514;9.988;2023-01-20T07:53:25;29.03;;;13.20;;
14139;SDS011;7150;53.514;9.988;2023-01-20T07:55:52;31.10;;;13.17;;
14139;SDS011;7150;53.514;9.988;2023-01-20T07:58:17;27.93;;;13.53;;
14139;SDS011;7150;53.514;9.988;2023-01-20T08:00:43;26.60;;;12.50;;
14139;SDS011;7150;53.514;9.988;2023-01-20T08:03:12;27.03;;;11.63;;
14139;SDS011;7150;53.514;9.988;2023-01-20T08:05:38;26.60;;;11.50;;
14139;SDS011;7150;53.514;9.988;2023-01-20T08:08:04;25.93;;;10.87;;
14139;SDS011;7150;53.514;9.988;2023-01-20T08:10:29;21.77;;;10.80;;
14139;SDS011;7150;53.514;9.988;2023-01-20T08:12:55;25.03;;;10.47;;
14139;SDS011;7150;53.514;9.988;2023-01-20T08:15:22;22.67;;;10.83;;
14139;SDS011;7150;53.514;9.988;2023-01-20T08:17:51;22.27;;;10.60;;
14139;SDS011;7150;53.514;9.988;2023-01-20T08:20:18;20.57;;;9.97;;
14139;SDS011;7150;53.514;9.988;2023-01-20T08:22:43;20.87;;;9.37;;
14139;SDS011;7150;53.514;9.988;2023-01-20T08:25:09;21.70;;;11.10;;
14139;SDS011;7150;53.514;9.988;2023-01-20T08:27:34;20.50;;;9.57;;
14139;SDS011;7150;53.514;9.988;2023-01-20T08:29:59;20.80;;;9.40;;
14139;SDS011;7150;53.514;9.988;2023-01-20T08:32:25;20.73;;;9.00;;
14139;SDS011;7150;53.514;9.988;2023-01-20T08:34:50;19.60;;;9.83;;
14139;SDS011;7150;53.514;9.988;2023-01-20T08:37:16;18.30;;;8.53;;
14139;SDS011;7150;53.514;9.988;2023-01-20T08:39:41;19.33;;;9.13;;
14139;SDS011;7150;53.514;9.988;2023-01-20T08:42:07;20.53;;;10.10;;
14139;SDS011;7150;53.514;9.988;2023-01-20T08:44:32;22.57;;;9.97;;
14139;SDS011;7150;53.514;9.988;2023-01-20T08:46:58;20.00;;;9.07;;
14139;SDS011;7150;53.514;9.988;2023-01-20T08:49:23;20.53;;;9.73;;
14139;SDS011;7150;53.514;9.988;2023-01-20T08:51:49;20.00;;;9.83;;
14139;SDS011;7150;53.514;9.988;2023-01-20T08:54:15;18.23;;;8.90;;
14139;SDS011;7150;53.514;9.988;2023-01-20T08:56:41;20.53;;;10.57;;
14139;SDS011;7150;53.514;9.988;2023-01-20T08:59:06;23.17;;;9.73;;
14139;SDS011;7150;53.514;9.988;2023-01-20T09:01:33;21.27;;;10.27;;
14139;SDS011;7150;53.514;9.988;2023-01-20T09:04:01;19.97;;;9.77;;
14139;SDS011;7150;53.514;9.988;2023-01-20T09:06:29;24.47;;;10.43;;
14139;SDS011;7150;53.514;9.988;2023-01-20T09:08:56;20.13;;;9.60;;
14139;SDS011;7150;53.514;9.988;2023-01-20T09:11:22;19.80;;;9.83;;
14139;SDS011;7150;53.514;9.988;2023-01-20T09:13:48;21.77;;;9.73;;
14139;SDS011;7150;53.514;9.988;2023-01-20T09:16:15;19.13;;;9.13;;
14139;SDS011;7150;53.514;9.988;2023-01-20T09:18:42;18.17;;;9.37;;
14139;SDS011;7150;53.514;9.988;2023-01-20T09:21:08;18.87;;;9.10;;
14139;SDS011;7150;53.514;9.988;2023-01-20T09:23:34;21.10;;;10.63;;
14139;SDS011;7150;53.514;9.988;2023-01-20T09:26:02;20.30;;;9.03;;
14139;SDS011;7150;53.514;9.988;2023-01-20T09:28:29;20.13;;;9.03;;
14139;SDS011;7150;53.514;9.988;2023-01-20T09:31:02;20.60;;;9.60;;
14139;SDS011;7150;53.514;9.988;2023-01-20T09:33:30;19.50;;;9.27;;
14139;SDS011;7150;53.514;9.988;2023-01-20T09:35:57;23.33;;;9.87;;
14139;SDS011;7150;53.514;9.988;2023-01-20T09:38:24;20.67;;;9.73;;
14139;SDS011;7150;53.514;9.988;2023-01-20T09:41:16;22.50;;;10.43;;
14139;SDS011;7150;53.514;9.988;2023-01-20T09:44:04;24.90;;;10.67;;
14139;SDS011;7150;53.514;9.988;2023-01-20T09:49:11;18.77;;;10.07;;
14139;SDS011;7150;53.514;9.988;2023-01-20T09:52:15;25.13;;;10.07;;
14139;SDS011;7150;53.514;9.988;2023-01-20T09:55:30;19.10;;;9.47;;
14139;SDS011;7150;53.514;9.988;2023-01-20T09:58:21;19.93;;;9.93;;
14139;SDS011;7150;53.514;9.988;2023-01-20T10:04:03;19.33;;;9.70;;
14139;SDS011;7150;53.514;9.988;2023-01-20T10:06:39;21.37;;;10.03;;
14139;SDS011;7150;53.514;9.988;2023-01-20T10:09:10;18.00;;;8.23;;
14139;SDS011;7150;53.514;9.988;2023-01-20T10:12:46;20.23;;;8.90;;
14139;SDS011;7150;53.514;9.988;2023-01-20T10:15:05;19.60;;;9.03;;
14139;SDS011;7150;53.514;9.988;2023-01-20T10:17:46;17.97;;;8.63;;
14139;SDS011;7150;53.514;9.988;2023-01-20T10:20:24;17.17;;;8.93;;
14139;SDS011;7150;53.514;9.988;2023-01-20T10:23:00;15.57;;;8.07;;
14139;SDS011;7150;53.514;9.988;2023-01-20T10:25:38;20.03;;;8.70;;
14139;SDS011;7150;53.514;9.988;2023-01-20T10:28:19;18.67;;;9.23;;
14139;SDS011;7150;53.514;9.988;2023-01-20T10:30:54;17.67;;;9.17;;
14139;SDS011;7150;53.514;9.988;2023-01-20T10:33:24;17.33;;;7.80;;
14139;SDS011;7150;53.514;9.988;2023-01-20T10:35:58;18.27;;;9.17;;
14139;SDS011;7150;53.514;9.988;2023-01-20T10:41:03;18.03;;;8.43;;
14139;SDS011;7150;53.514;9.988;2023-01-20T10:43:55;18.10;;;7.93;;
14139;SDS011;7150;53.514;9.988;2023-01-20T10:46:32;16.90;;;8.40;;
14139;SDS011;7150;53.514;9.988;2023-01-20T10:52:26;18.03;;;8.50;;
14139;SDS011;7150;53.514;9.988;2023-01-20T10:55:05;16.87;;;7.97;;
14139;SDS011;7150;53.514;9.988;2023-01-20T10:58:28;17.57;;;7.73;;
14139;SDS011;7150;53.514;9.988;2023-01-20T11:00:43;17.67;;;8.40;;
14139;SDS011;7150;53.514;9.988;2023-01-20T11:03:11;12.10;;;6.93;;
14139;SDS011;7150;53.514;9.988;2023-01-20T11:05:38;15.60;;;7.67;;
14139;SDS011;7150;53.514;9.988;2023-01-20T11:08:13;17.83;;;8.83;;
14139;SDS011;7150;53.514;9.988;2023-01-20T11:10:42;14.73;;;7.13;;
14139;SDS011;7150;53.514;9.988;2023-01-20T11:13:08;15.13;;;7.27;;
14139;SDS011;7150;53.514;9.988;2023-01-20T11:15:36;16.07;;;7.17;;
14139;SDS011;7150;53.514;9.988;2023-01-20T11:20:45;19.20;;;8.70;;
14139;SDS011;7150;53.514;9.988;2023-01-20T11:26:24;15.23;;;7.40;;
14139;SDS011;7150;53.514;9.988;2023-01-20T11:28:59;13.63;;;6.97;;
14139;SDS011;7150;53.514;9.988;2023-01-20T11:31:38;14.47;;;7.77;;
14139;SDS011;7150;53.514;9.988;2023-01-20T11:34:33;16.53;;;8.03;;
14139;SDS011;7150;53.514;9.988;2023-01-20T11:39:29;17.03;;;8.07;;
14139;SDS011;7150;53.514;9.988;2023-01-20T11:44:40;14.57;;;7.00;;
14139;SDS011;7150;53.514;9.988;2023-01-20T11:57:44;13.47;;;7.37;;
14139;SDS011;7150;53.514;9.988;2023-01-20T12:02:55;14.27;;;7.17;;
14139;SDS011;7150;53.514;9.988;2023-01-20T12:05:24;16.27;;;7.87;;
14139;SDS011;7150;53.514;9.988;2023-01-20T12:07:58;15.53;;;7.87;;
14139;SDS011;7150;53.514;9.988;2023-01-20T12:10:26;15.43;;;7.40;;
14139;SDS011;7150;53.514;9.988;2023-01-20T12:12:57;14.30;;;6.83;;
14139;SDS011;7150;53.514;9.988;2023-01-20T12:15:28;13.77;;;7.60;;
14139;SDS011;7150;53.514;9.988;2023-01-20T12:18:16;13.77;;;7.53;;
14139;SDS011;7150;53.514;9.988;2023-01-20T12:23:38;14.77;;;7.17;;
14139;SDS011;7150;53.514;9.988;2023-01-20T12:26:13;13.63;;;6.93;;
14139;SDS011;7150;53.514;9.988;2023-01-20T12:28:57;16.67;;;7.40;;
14139;SDS011;7150;53.514;9.988;2023-01-20T12:31:43;15.23;;;6.67;;
14139;SDS011;7150;53.514;9.988;2023-01-20T12:34:16;15.97;;;7.63;;
14139;SDS011;7150;53.514;9.988;2023-01-20T12:36:57;14.07;;;7.70;;
14139;SDS011;7150;53.514;9.988;2023-01-20T12:42:35;15.70;;;7.33;;
14139;SDS011;7150;53.514;9.988;2023-01-20T12:48:03;19.63;;;8.03;;
14139;SDS011;7150;53.514;9.988;2023-01-20T13:04:53;13.60;;;6.93;;
14139;SDS011;7150;53.514;9.988;2023-01-20T13:08:08;14.63;;;7.93;;
14139;SDS011;7150;53.514;9.988;2023-01-20T13:13:32;17.57;;;8.17;;
14139;SDS011;7150;53.514;9.988;2023-01-20T13:21:41;11.77;;;6.53;;
14139;SDS011;7150;53.514;9.988;2023-01-20T13:24:13;12.40;;;7.07;;
14139;SDS011;7150;53.514;9.988;2023-01-20T13:26:44;14.40;;;7.40;;
14139;SDS011;7150;53.514;9.988;2023-01-20T13:29:21;12.87;;;7.60;;
14139;SDS011;7150;53.514;9.988;2023-01-20T13:32:24;12.80;;;6.30;;
14139;SDS011;7150;53.514;9.988;2023-01-20T13:34:58;12.13;;;6.10;;
14139;SDS011;7150;53.514;9.988;2023-01-20T13:37:28;15.70;;;7.57;;
14139;SDS011;7150;53.514;9.988;2023-01-20T13:39:59;13.77;;;7.37;;
14139;SDS011;7150;53.514;9.988;2023-01-20T13:55:25;11.63;;;6.23;;
14139;SDS011;7150;53.514;9.988;2023-01-20T13:58:16;12.87;;;6.30;;
14139;SDS011;7150;53.514;9.988;2023-01-20T14:00:56;14.43;;;7.30;;
14139;SDS011;7150;53.514;9.988;2023-01-20T14:03:30;13.40;;;6.93;;
14139;SDS011;7150;53.514;9.988;2023-01-20T14:06:01;15.07;;;7.50;;
14139;SDS011;7150;53.514;9.988;2023-01-20T14:08:50;12.70;;;6.27;;
14139;SDS011;7150;53.514;9.988;2023-01-20T14:11:16;13.73;;;6.40;;
14139;SDS011;7150;53.514;9.988;2023-01-20T14:13:50;11.37;;;5.97;;
14139;SDS011;7150;53.514;9.988;2023-01-20T14:16:18;13.17;;;7.07;;
14139;SDS011;7150;53.514;9.988;2023-01-20T14:18:52;13.27;;;6.80;;
14139;SDS011;7150;53.514;9.988;2023-01-20T14:21:21;15.13;;;6.80;;
14139;SDS011;7150;53.514;9.988;2023-01-20T14:23:49;13.47;;;6.80;;
14139;SDS011;7150;53.514;9.988;2023-01-20T14:26:28;13.97;;;7.40;;
14139;SDS011;7150;53.514;9.988;2023-01-20T14:28:56;13.60;;;7.43;;
14139;SDS011;7150;53.514;9.988;2023-01-20T14:34:14;13.53;;;7.23;;
14139;SDS011;7150;53.514;9.988;2023-01-20T14:36:54;16.83;;;6.07;;
14139;SDS011;7150;53.514;9.988;2023-01-20T14:39:23;14.13;;;7.33;;
14139;SDS011;7150;53.514;9.988;2023-01-20T14:41:51;14.30;;;6.93;;
14139;SDS011;7150;53.514;9.988;2023-01-20T14:44:22;12.40;;;6.60;;
14139;SDS011;7150;53.514;9.988;2023-01-20T14:46:50;15.57;;;7.33;;
14139;SDS011;7150;53.514;9.988;2023-01-20T14:49:18;18.03;;;6.70;;
14139;SDS011;7150;53.514;9.988;2023-01-20T14:51:46;10.23;;;5.70;;
14139;SDS011;7150;53.514;9.988;2023-01-20T14:54:29;10.20;;;5.20;;
14139;SDS011;7150;53.514;9.988;2023-01-20T15:00:00;13.33;;;6.90;;
14139;SDS011;7150;53.514;9.988;2023-01-20T15:10:38;10.90;;;6.47;;
14139;SDS011;7150;53.514;9.988;2023-01-20T15:13:03;13.87;;;5.67;;
14139;SDS011;7150;53.514;9.988;2023-01-20T15:15:45;11.47;;;6.07;;
14139;SDS011;7150;53.514;9.988;2023-01-20T15:18:15;13.23;;;6.77;;
14139;SDS011;7150;53.514;9.988;2023-01-20T15:20:45;17.60;;;7.57;;
14139;SDS011;7150;53.514;9.988;2023-01-20T15:23:30;13.57;;;6.47;;
14139;SDS011;7150;53.514;9.988;2023-01-20T15:28:55;11.47;;;5.83;;
14139;SDS011;7150;53.514;9.988;2023-01-20T15:31:22;11.87;;;5.90;;
14139;SDS011;7150;53.514;9.988;2023-01-20T15:33:48;10.93;;;5.70;;
14139;SDS011;7150;53.514;9.988;2023-01-20T15:36:26;12.03;;;6.40;;
14139;SDS011;7150;53.514;9.988;2023-01-20T15:38:53;12.80;;;6.67;;
14139;SDS011;7150;53.514;9.988;2023-01-20T15:41:19;11.60;;;6.37;;
14139;SDS011;7150;53.514;9.988;2023-01-20T15:43:45;15.03;;;7.33;;
14139;SDS011;7150;53.514;9.988;2023-01-20T15:46:14;13.80;;;6.20;;
14139;SDS011;7150;53.514;9.988;2023-01-20T15:48:41;14.10;;;6.40;;
14139;SDS011;7150;53.514;9.988;2023-01-20T15:51:25;14.40;;;6.73;;
14139;SDS011;7150;53.514;9.988;2023-01-20T15:53:51;13.40;;;6.30;;
14139;SDS011;7150;53.514;9.988;2023-01-20T15:56:20;11.87;;;6.77;;
14139;SDS011;7150;53.514;9.988;2023-01-20T15:58:53;12.80;;;6.40;;
14139;SDS011;7150;53.514;9.988;2023-01-20T16:01:21;18.13;;;7.03;;
14139;SDS011;7150;53.514;9.988;2023-01-20T16:03:49;11.97;;;6.53;;
14139;SDS011;7150;53.514;9.988;2023-01-20T16:06:19;16.73;;;7.10;;
14139;SDS011;7150;53.514;9.988;2023-01-20T16:08:47;12.97;;;7.10;;
14139;SDS011;7150;53.514;9.988;2023-01-20T16:11:14;12.27;;;7.17;;
14139;SDS011;7150;53.514;9.988;2023-01-20T16:13:41;12.43;;;6.90;;
14139;SDS011;7150;53.514;9.988;2023-01-20T16:18:42;15.03;;;6.63;;
14139;SDS011;7150;53.514;9.988;2023-01-20T16:21:09;16.60;;;7.73;;
14139;SDS011;7150;53.514;9.988;2023-01-20T16:23:36;14.87;;;7.90;;
14139;SDS011;7150;53.514;9.988;2023-01-20T16:26:04;15.10;;;6.90;;
14139;SDS011;7150;53.514;9.988;2023-01-20T16:28:46;16.67;;;7.07;;
14139;SDS011;7150;53.514;9.988;2023-01-20T16:31:15;12.47;;;6.30;;
14139;SDS011;7150;53.514;9.988;2023-01-20T16:33:41;13.03;;;7.00;;
14139;SDS011;7150;53.514;9.988;2023-01-20T16:36:14;11.07;;;6.07;;
14139;SDS011;7150;53.514;9.988;2023-01-20T16:38:41;18.00;;;7.27;;
14139;SDS011;7150;53.514;9.988;2023-01-20T16:41:20;14.57;;;6.73;;
14139;SDS011;7150;53.514;9.988;2023-01-20T16:43:48;12.67;;;6.80;;
14139;SDS011;7150;53.514;9.988;2023-01-20T16:46:15;12.63;;;6.70;;
14139;SDS011;7150;53.514;9.988;2023-01-20T16:48:46;15.07;;;7.23;;
14139;SDS011;7150;53.514;9.988;2023-01-20T16:51:12;16.07;;;8.10;;
14139;SDS011;7150;53.514;9.988;2023-01-20T16:53:38;24.03;;;10.77;;
14139;SDS011;7150;53.514;9.988;2023-01-20T16:56:04;26.23;;;12.10;;
14139;SDS011;7150;53.514;9.988;2023-01-20T16:58:30;26.03;;;12.30;;
14139;SDS011;7150;53.514;9.988;2023-01-20T17:00:55;20.07;;;10.70;;
14139;SDS011;7150;53.514;9.988;2023-01-20T17:03:24;23.77;;;12.23;;
14139;SDS011;7150;53.514;9.988;2023-01-20T17:05:51;21.57;;;10.77;;